Time;durP1;ratioP1;P1;durP2;ratioP2;P2;SDS_P1;SDS_P2;PMS_P1;PMS_P2;Temp;Humidity;BMP_temperature;BMP_pressure;BME280_temperature;BME280_humidity;BME280_pressure;Samples;Min_cycle;Max_cycle;Signal;HPM_P1;HPM_P2
2023/01/23 00:02:08;;;;;;;5.60;3.30;;;;;;;;;;5050829;28;20028;-70
2023/01/23 00:04:34;;;;;;;3.60;2.78;;;;;;;;;;5058196;28;20048;-70
2023/01/23 00:07:02;;;;;;;6.32;3.55;;;;;;;;;;5052482;28;20123;-70
2023/01/23 00:09:28;;;;;;;5.10;2.90;;;;;;;;;;5052497;28;20385;-70
2023/01/23 00:11:54;;;;;;;5.97;3.00;;;;;;;;;;5054588;28;20048;-70
2023/01/23 00:14:20;;;;;;;7.07;3.15;;;;;;;;;;5055067;28;20019;-69
2023/01/23 00:16:46;;;;;;;5.22;2.92;;;;;;;;;;5049495;28;20485;-70
2023/01/23 00:19:11;;;;;;;5.63;3.60;;;;;;;;;;5054841;28;20029;-70
2023/01/23 00:21:38;;;;;;;6.38;3.47;;;;;;;;;;5054005;28;20017;-70
2023/01/23 00:24:04;;;;;;;3.90;2.78;;;;;;;;;;5063257;28;20031;-70
2023/01/23 00:26:34;;;;;;;6.35;3.00;;;;;;;;;;5067178;28;20036;-70
2023/01/23 00:29:00;;;;;;;5.22;3.30;;;;;;;;;;5061994;28;20620;-70
2023/01/23 00:31:32;;;;;;;4.45;2.97;;;;;;;;;;5058976;28;20472;-70
2023/01/23 00:33:59;;;;;;;5.18;3.05;;;;;;;;;;5059257;28;20040;-70
2023/01/23 00:36:27;;;;;;;4.18;2.83;;;;;;;;;;5056435;28;20043;-70
2023/01/23 00:38:53;;;;;;;4.78;2.95;;;;;;;;;;5049620;28;20115;-70
2023/01/23 00:41:19;;;;;;;4.97;3.13;;;;;;;;;;5053398;28;20033;-71
2023/01/23 00:43:47;;;;;;;4.50;2.97;;;;;;;;;;5058737;28;20029;-71
2023/01/23 00:46:13;;;;;;;4.55;2.88;;;;;;;;;;5055990;28;20421;-71
2023/01/23 00:48:38;;;;;;;5.82;3.33;;;;;;;;;;5050690;28;20047;-71
2023/01/23 00:51:05;;;;;;;5.68;3.35;;;;;;;;;;5052073;28;20385;-71
2023/01/23 00:53:31;;;;;;;5.18;3.05;;;;;;;;;;5051952;28;20071;-71
2023/01/23 00:55:57;;;;;;;3.97;2.75;;;;;;;;;;5049291;28;20525;-71
2023/01/23 00:58:23;;;;;;;6.50;3.10;;;;;;;;;;5062823;28;20020;-71
2023/01/23 01:00:49;;;;;;;4.70;2.97;;;;;;;;;;5050834;28;20040;-71
2023/01/23 01:03:15;;;;;;;5.82;2.90;;;;;;;;;;5058181;28;20112;-71
2023/01/23 01:05:41;;;;;;;5.22;2.72;;;;;;;;;;5057816;28;20029;-71
2023/01/23 01:08:07;;;;;;;4.68;3.00;;;;;;;;;;5062136;28;20024;-71
2023/01/23 01:10:33;;;;;;;5.13;2.90;;;;;;;;;;5056151;28;20078;-71
2023/01/23 01:13:00;;;;;;;4.10;2.92;;;;;;;;;;5062564;28;20127;-71
2023/01/23 01:15:26;;;;;;;3.67;2.58;;;;;;;;;;5052772;28;20112;-71
2023/01/23 01:17:53;;;;;;;6.22;2.47;;;;;;;;;;5059200;28;20043;-71
2023/01/23 01:20:19;;;;;;;5.55;3.08;;;;;;;;;;5054225;28;20037;-71
2023/01/23 01:22:45;;;;;;;6.30;2.70;;;;;;;;;;5051134;28;20032;-71
2023/01/23 01:25:11;;;;;;;4.53;2.63;;;;;;;;;;5048206;28;20037;-71
2023/01/23 01:27:37;;;;;;;5.85;2.92;;;;;;;;;;5055014;28;20460;-71
2023/01/23 01:30:03;;;;;;;3.55;2.45;;;;;;;;;;5065992;28;20021;-71
2023/01/23 01:32:29;;;;;;;5.40;2.55;;;;;;;;;;5065830;28;20036;-71
2023/01/23 01:34:55;;;;;;;7.55;3.30;;;;;;;;;;5057410;28;20678;-72
2023/01/23 01:37:22;;;;;;;4.95;2.90;;;;;;;;;;5048331;28;20464;-72
2023/01/23 01:39:48;;;;;;;3.63;2.58;;;;;;;;;;5051939;28;20072;-71
2023/01/23 01:42:14;;;;;;;4.57;2.75;;;;;;;;;;5055550;28;20051;-71
2023/01/23 01:44:57;;;;;;;6.57;2.78;;;;;;;;;;5052123;28;20039;-70
2023/01/23 01:47:23;;;;;;;5.00;2.90;;;;;;;;;;5063513;28;20067;-70
2023/01/23 01:49:51;;;;;;;6.60;2.72;;;;;;;;;;5053606;28;20390;-71
2023/01/23 01:52:19;;;;;;;4.45;2.60;;;;;;;;;;5056897;28;20541;-71
2023/01/23 01:54:48;;;;;;;5.10;2.83;;;;;;;;;;5051936;28;20393;-70
2023/01/23 01:57:23;;;;;;;3.35;2.33;;;;;;;;;;5054212;28;20059;-71
2023/01/23 01:59:53;;;;;;;5.03;2.80;;;;;;;;;;5052078;28;20025;-71
2023/01/23 02:02:31;;;;;;;4.05;2.47;;;;;;;;;;5055462;28;20032;-70
2023/01/23 02:04:59;;;;;;;5.35;2.45;;;;;;;;;;5063735;28;20024;-71
2023/01/23 02:07:31;;;;;;;3.50;2.30;;;;;;;;;;5055357;28;20373;-71
2023/01/23 02:09:57;;;;;;;4.18;2.80;;;;;;;;;;5050924;28;20025;-71
2023/01/23 02:12:25;;;;;;;4.07;2.65;;;;;;;;;;5046504;28;20045;-70
2023/01/23 02:14:51;;;;;;;3.80;2.47;;;;;;;;;;5061792;28;20025;-70
2023/01/23 02:17:18;;;;;;;4.13;2.83;;;;;;;;;;5055550;28;20020;-71
2023/01/23 02:19:44;;;;;;;4.85;2.53;;;;;;;;;;5057058;28;20021;-70
2023/01/23 02:22:15;;;;;;;4.63;2.80;;;;;;;;;;5055886;28;20591;-70
2023/01/23 02:24:44;;;;;;;3.90;2.40;;;;;;;;;;5057319;28;20033;-71
2023/01/23 02:27:10;;;;;;;5.05;2.63;;;;;;;;;;5049016;28;20740;-70
2023/01/23 02:29:43;;;;;;;4.35;2.50;;;;;;;;;;5046992;28;20017;-70
2023/01/23 02:32:10;;;;;;;3.10;2.20;;;;;;;;;;5046608;28;20029;-71
2023/01/23 02:34:36;;;;;;;3.90;2.47;;;;;;;;;;5051307;28;20029;-71
2023/01/23 02:37:02;;;;;;;6.07;2.65;;;;;;;;;;5052087;28;20056;-70
2023/01/23 02:39:28;;;;;;;4.28;2.72;;;;;;;;;;5056714;28;20155;-71
2023/01/23 02:41:55;;;;;;;5.45;2.85;;;;;;;;;;5057954;28;20046;-71
2023/01/23 02:44:27;;;;;;;3.33;2.42;;;;;;;;;;5065914;28;20489;-71
2023/01/23 02:46:54;;;;;;;3.95;2.50;;;;;;;;;;5048135;28;20098;-71
2023/01/23 02:49:21;;;;;;;3.45;2.50;;;;;;;;;;5048110;28;20147;-71
2023/01/23 02:51:47;;;;;;;3.65;2.35;;;;;;;;;;5052678;28;20383;-71
2023/01/23 02:54:13;;;;;;;3.80;2.25;;;;;;;;;;5060914;28;20025;-71
2023/01/23 02:56:41;;;;;;;3.90;2.30;;;;;;;;;;5050642;28;20032;-71
2023/01/23 03:01:51;;;;;;;6.05;2.80;;;;;;;;;;5052269;28;20040;-71
2023/01/23 03:04:17;;;;;;;4.82;2.72;;;;;;;;;;5064030;28;20033;-70
2023/01/23 03:06:43;;;;;;;4.32;2.60;;;;;;;;;;5064513;28;20024;-71
2023/01/23 03:09:10;;;;;;;4.50;2.47;;;;;;;;;;5057573;28;20023;-71
2023/01/23 03:11:37;;;;;;;3.70;2.28;;;;;;;;;;5050397;28;20153;-70
2023/01/23 03:14:03;;;;;;;4.68;2.30;;;;;;;;;;5048981;28;20060;-71
2023/01/23 03:16:30;;;;;;;3.90;2.47;;;;;;;;;;5048301;28;20013;-70
2023/01/23 03:18:57;;;;;;;5.07;2.58;;;;;;;;;;5056066;28;20029;-71
2023/01/23 03:21:23;;;;;;;3.42;2.30;;;;;;;;;;5054114;28;20467;-71
2023/01/23 03:23:49;;;;;;;3.83;2.58;;;;;;;;;;5061038;28;20107;-71
2023/01/23 03:26:16;;;;;;;3.78;2.65;;;;;;;;;;5045949;28;20076;-71
2023/01/23 03:31:27;;;;;;;4.38;2.65;;;;;;;;;;5060264;28;20040;-71
2023/01/23 03:33:53;;;;;;;7.97;2.78;;;;;;;;;;5052720;28;20021;-72
2023/01/23 03:36:19;;;;;;;3.95;2.55;;;;;;;;;;5056406;28;20021;-72
2023/01/23 03:41:30;;;;;;;3.30;2.35;;;;;;;;;;5060838;28;20515;-70
2023/01/23 03:43:56;;;;;;;4.28;2.20;;;;;;;;;;5058509;28;20033;-70
2023/01/23 03:46:22;;;;;;;3.13;2.05;;;;;;;;;;5049031;28;20040;-72
2023/01/23 03:48:48;;;;;;;4.65;2.22;;;;;;;;;;5060621;28;20530;-71
2023/01/23 03:51:14;;;;;;;4.70;2.40;;;;;;;;;;5047436;28;20041;-71
2023/01/23 03:53:40;;;;;;;4.30;2.95;;;;;;;;;;5060853;28;20029;-71
2023/01/23 03:56:06;;;;;;;5.15;2.58;;;;;;;;;;5051365;28;20020;-71
2023/01/23 03:58:32;;;;;;;4.15;2.38;;;;;;;;;;5053372;28;20033;-71
2023/01/23 04:01:02;;;;;;;4.90;2.65;;;;;;;;;;5046117;28;20409;-71
2023/01/23 04:03:28;;;;;;;3.65;2.10;;;;;;;;;;5048424;28;20447;-71
2023/01/23 04:05:57;;;;;;;4.53;2.30;;;;;;;;;;5050597;28;20033;-72
2023/01/23 04:08:23;;;;;;;4.10;2.15;;;;;;;;;;5064661;28;20025;-71
2023/01/23 04:10:49;;;;;;;4.25;2.38;;;;;;;;;;5054162;28;20060;-71
2023/01/23 04:13:16;;;;;;;4.07;2.17;;;;;;;;;;5048779;28;20135;-71
2023/01/23 04:15:42;;;;;;;5.70;2.08;;;;;;;;;;5061381;28;20021;-71
2023/01/23 04:18:08;;;;;;;5.15;2.20;;;;;;;;;;5057939;28;20761;-71
2023/01/23 04:20:34;;;;;;;4.97;2.40;;;;;;;;;;5062163;28;20021;-71
2023/01/23 04:22:59;;;;;;;4.15;2.42;;;;;;;;;;5048609;28;20564;-71
2023/01/23 04:25:27;;;;;;;3.10;2.15;;;;;;;;;;5062855;28;20040;-72
2023/01/23 04:27:53;;;;;;;3.28;2.40;;;;;;;;;;5062045;28;21839;-72
2023/01/23 04:30:19;;;;;;;5.25;2.38;;;;;;;;;;5048632;28;20044;-72
2023/01/23 04:32:45;;;;;;;4.50;2.40;;;;;;;;;;5050004;28;20025;-72
2023/01/23 04:35:11;;;;;;;3.50;2.03;;;;;;;;;;5066798;28;20365;-72
2023/01/23 04:37:37;;;;;;;3.22;2.17;;;;;;;;;;5059682;28;20037;-71
2023/01/23 04:40:03;;;;;;;6.45;2.50;;;;;;;;;;5054080;28;20400;-72
2023/01/23 04:42:29;;;;;;;6.03;2.53;;;;;;;;;;5052099;28;20037;-72
2023/01/23 04:44:55;;;;;;;4.20;2.40;;;;;;;;;;5050778;28;20403;-72
2023/01/23 04:47:21;;;;;;;4.28;2.53;;;;;;;;;;5054020;28;20465;-72
2023/01/23 04:49:46;;;;;;;4.20;2.30;;;;;;;;;;5052860;28;20028;-72
2023/01/23 04:52:12;;;;;;;4.50;2.40;;;;;;;;;;5059828;28;20044;-72
2023/01/23 04:54:38;;;;;;;3.45;2.10;;;;;;;;;;5052319;28;20033;-71
2023/01/23 04:57:04;;;;;;;3.80;2.40;;;;;;;;;;5054331;28;20021;-72
2023/01/23 04:59:30;;;;;;;5.70;2.28;;;;;;;;;;5058186;28;20695;-72
2023/01/23 05:01:56;;;;;;;5.13;2.67;;;;;;;;;;5056870;28;20568;-72
2023/01/23 05:04:22;;;;;;;4.07;2.20;;;;;;;;;;5048075;28;20036;-71
2023/01/23 05:06:48;;;;;;;4.95;2.35;;;;;;;;;;5056640;28;20029;-71
2023/01/23 05:09:14;;;;;;;4.10;2.30;;;;;;;;;;5051367;28;20095;-72
2023/01/23 05:11:40;;;;;;;3.30;2.20;;;;;;;;;;5053384;28;20056;-72
2023/01/23 05:14:06;;;;;;;3.15;2.10;;;;;;;;;;5054660;28;20032;-71
2023/01/23 05:16:32;;;;;;;3.53;2.25;;;;;;;;;;5055710;28;20020;-72
2023/01/23 05:18:58;;;;;;;3.60;2.40;;;;;;;;;;5050489;28;20020;-72
2023/01/23 05:21:24;;;;;;;4.70;2.40;;;;;;;;;;5059378;28;20031;-72
2023/01/23 05:23:50;;;;;;;3.90;2.10;;;;;;;;;;5056463;28;20021;-72
2023/01/23 05:26:16;;;;;;;5.22;2.30;;;;;;;;;;5048614;28;20017;-72
2023/01/23 05:28:42;;;;;;;5.40;2.10;;;;;;;;;;5051539;28;20045;-72
2023/01/23 05:31:08;;;;;;;4.55;2.38;;;;;;;;;;5048920;28;20067;-72
2023/01/23 05:33:34;;;;;;;3.95;2.20;;;;;;;;;;5047419;28;20021;-72
2023/01/23 05:36:00;;;;;;;3.67;2.30;;;;;;;;;;5062680;28;20029;-72
2023/01/23 05:38:26;;;;;;;2.88;2.05;;;;;;;;;;5050494;28;20025;-72
2023/01/23 05:40:52;;;;;;;3.03;2.15;;;;;;;;;;5057884;28;20029;-71
2023/01/23 05:43:18;;;;;;;8.77;2.42;;;;;;;;;;5051192;28;20094;-71
2023/01/23 05:45:45;;;;;;;3.85;2.13;;;;;;;;;;5053035;28;20028;-71
2023/01/23 05:48:11;;;;;;;4.15;2.25;;;;;;;;;;5047390;28;20542;-72
2023/01/23 05:50:36;;;;;;;5.85;2.20;;;;;;;;;;5059683;28;20037;-71
2023/01/23 05:53:03;;;;;;;4.65;2.50;;;;;;;;;;5057212;28;20033;-71
2023/01/23 05:55:29;;;;;;;3.92;2.05;;;;;;;;;;5055762;28;20017;-72
2023/01/23 05:57:55;;;;;;;3.85;2.45;;;;;;;;;;5053402;28;20051;-72
2023/01/23 06:00:21;;;;;;;4.28;2.40;;;;;;;;;;5052909;28;20021;-72
2023/01/23 06:02:47;;;;;;;4.07;2.40;;;;;;;;;;5057371;28;20033;-72
2023/01/23 06:05:13;;;;;;;4.28;2.45;;;;;;;;;;5053080;28;20489;-72
2023/01/23 06:07:39;;;;;;;4.63;2.15;;;;;;;;;;5050799;28;20037;-72
2023/01/23 06:10:05;;;;;;;4.20;2.67;;;;;;;;;;5052586;28;20099;-72
2023/01/23 06:12:31;;;;;;;3.22;2.08;;;;;;;;;;5056702;28;20045;-71
2023/01/23 06:14:57;;;;;;;3.78;2.20;;;;;;;;;;5060155;28;20032;-72
2023/01/23 06:17:23;;;;;;;3.75;2.50;;;;;;;;;;5059740;28;20024;-72
2023/01/23 06:19:49;;;;;;;4.93;2.22;;;;;;;;;;5061282;28;20463;-72
2023/01/23 06:22:15;;;;;;;4.10;2.40;;;;;;;;;;5050198;28;20025;-72
2023/01/23 06:24:41;;;;;;;4.25;2.30;;;;;;;;;;5048108;28;20028;-72
2023/01/23 06:27:07;;;;;;;3.13;1.98;;;;;;;;;;5059549;28;20484;-72
2023/01/23 06:29:34;;;;;;;3.70;2.17;;;;;;;;;;5050337;28;20392;-71
2023/01/23 06:32:00;;;;;;;3.92;2.67;;;;;;;;;;5057926;28;20570;-71
2023/01/23 06:34:26;;;;;;;3.88;2.10;;;;;;;;;;5049890;28;20112;-71
2023/01/23 06:36:52;;;;;;;4.22;2.50;;;;;;;;;;5060402;28;20043;-72
2023/01/23 06:39:18;;;;;;;4.63;2.30;;;;;;;;;;5048580;28;20032;-71
2023/01/23 06:41:44;;;;;;;6.68;2.28;;;;;;;;;;5050848;28;20020;-71
2023/01/23 06:44:10;;;;;;;4.80;2.55;;;;;;;;;;5047433;28;20488;-72
2023/01/23 06:46:36;;;;;;;4.68;2.33;;;;;;;;;;5061487;28;20028;-71
2023/01/23 06:49:02;;;;;;;3.97;2.00;;;;;;;;;;5065186;28;20103;-72
2023/01/23 06:51:28;;;;;;;4.13;2.13;;;;;;;;;;5055707;28;20029;-72
2023/01/23 06:53:55;;;;;;;3.13;2.20;;;;;;;;;;5060154;28;20078;-72
2023/01/23 06:56:21;;;;;;;3.28;2.35;;;;;;;;;;5057402;28;20054;-72
2023/01/23 06:58:47;;;;;;;3.95;2.40;;;;;;;;;;5065510;28;20447;-72
2023/01/23 07:01:15;;;;;;;3.17;1.98;;;;;;;;;;5065921;28;20028;-72
2023/01/23 07:03:43;;;;;;;4.18;2.60;;;;;;;;;;5060134;28;20041;-71
2023/01/23 07:06:09;;;;;;;4.78;2.50;;;;;;;;;;5048985;28;20056;-71
2023/01/23 07:08:35;;;;;;;3.90;2.25;;;;;;;;;;5052986;28;20032;-72
2023/01/23 07:11:02;;;;;;;5.25;2.28;;;;;;;;;;5062317;28;20028;-72
2023/01/23 07:13:28;;;;;;;6.05;2.35;;;;;;;;;;5060969;28;20106;-72
2023/01/23 07:15:54;;;;;;;3.25;1.85;;;;;;;;;;5054140;28;20025;-74
2023/01/23 07:18:20;;;;;;;2.85;2.05;;;;;;;;;;5046635;28;20469;-74
2023/01/23 07:20:46;;;;;;;3.30;2.10;;;;;;;;;;5046003;28;20056;-74
2023/01/23 07:23:13;;;;;;;5.65;2.35;;;;;;;;;;5049852;28;20047;-75
2023/01/23 07:25:39;;;;;;;4.85;2.40;;;;;;;;;;5051857;28;20029;-75
2023/01/23 07:28:05;;;;;;;6.35;2.30;;;;;;;;;;5047454;28;20029;-75
2023/01/23 07:30:31;;;;;;;2.80;2.03;;;;;;;;;;5058277;28;20108;-75
2023/01/23 07:32:57;;;;;;;3.45;2.47;;;;;;;;;;5051797;28;20929;-74
2023/01/23 07:35:24;;;;;;;5.43;2.75;;;;;;;;;;5047457;28;20111;-69
2023/01/23 07:37:50;;;;;;;4.68;2.70;;;;;;;;;;5051882;28;20469;-70
2023/01/23 07:40:16;;;;;;;3.95;2.45;;;;;;;;;;5053310;28;20029;-72
2023/01/23 07:42:42;;;;;;;3.55;2.30;;;;;;;;;;5054230;28;20086;-73
2023/01/23 07:45:09;;;;;;;4.07;2.58;;;;;;;;;;5052867;28;21306;-73
2023/01/23 07:47:38;;;;;;;4.47;2.72;;;;;;;;;;5068025;28;20402;-72
2023/01/23 07:50:05;;;;;;;5.95;2.67;;;;;;;;;;5051936;28;20024;-70
2023/01/23 07:52:31;;;;;;;3.83;2.63;;;;;;;;;;5060722;28;20115;-71
2023/01/23 07:54:57;;;;;;;4.93;2.83;;;;;;;;;;5069521;28;20761;-71
2023/01/23 07:57:23;;;;;;;4.38;2.50;;;;;;;;;;5070475;28;20484;-72
2023/01/23 07:59:49;;;;;;;3.72;2.35;;;;;;;;;;5066267;28;20069;-72
2023/01/23 08:02:15;;;;;;;5.95;3.30;;;;;;;;;;5059779;28;20516;-71
2023/01/23 08:04:41;;;;;;;3.92;2.65;;;;;;;;;;5068446;28;20097;-72
2023/01/23 08:07:07;;;;;;;5.03;3.38;;;;;;;;;;5070554;28;20027;-71
2023/01/23 08:09:33;;;;;;;9.50;3.63;;;;;;;;;;5052091;28;20108;-72
2023/01/23 08:11:59;;;;;;;4.45;2.67;;;;;;;;;;5056374;28;20337;-73
2023/01/23 08:14:25;;;;;;;4.28;2.63;;;;;;;;;;5058804;28;20036;-72
2023/01/23 08:16:51;;;;;;;4.75;2.33;;;;;;;;;;5054274;28;20040;-73
2023/01/23 08:19:17;;;;;;;5.32;3.25;;;;;;;;;;5061989;28;20035;-72
2023/01/23 08:21:44;;;;;;;4.35;3.10;;;;;;;;;;5064196;28;20081;-73
2023/01/23 08:24:13;;;;;;;3.78;2.60;;;;;;;;;;5055178;28;20029;-73
2023/01/23 08:26:40;;;;;;;6.30;3.40;;;;;;;;;;5051627;28;20039;-73
2023/01/23 08:29:06;;;;;;;5.93;2.92;;;;;;;;;;5053185;28;20061;-73
2023/01/23 08:31:32;;;;;;;4.80;2.58;;;;;;;;;;5049129;28;20013;-72
2023/01/23 08:33:58;;;;;;;4.40;2.53;;;;;;;;;;5053280;28;20067;-74
2023/01/23 08:36:24;;;;;;;6.30;3.22;;;;;;;;;;5048242;28;20035;-74
2023/01/23 08:38:51;;;;;;;3.70;2.58;;;;;;;;;;5061930;28;20112;-72
2023/01/23 08:41:17;;;;;;;5.55;2.92;;;;;;;;;;5056014;28;20641;-72
2023/01/23 08:43:46;;;;;;;5.43;2.88;;;;;;;;;;5060943;28;20033;-72
2023/01/23 08:46:12;;;;;;;4.30;2.67;;;;;;;;;;5050827;28;20036;-72
2023/01/23 08:48:38;;;;;;;5.40;2.78;;;;;;;;;;5049174;28;20238;-72
2023/01/23 08:51:06;;;;;;;4.93;2.50;;;;;;;;;;5049138;28;20469;-71
2023/01/23 08:53:32;;;;;;;3.20;2.40;;;;;;;;;;5048880;28;20485;-72
2023/01/23 08:56:03;;;;;;;7.18;2.90;;;;;;;;;;5048972;28;20112;-71
2023/01/23 08:58:28;;;;;;;3.72;2.20;;;;;;;;;;5049230;28;20052;-72
2023/01/23 09:00:55;;;;;;;4.35;2.80;;;;;;;;;;5049217;28;20477;-72
2023/01/23 09:03:20;;;;;;;4.60;2.60;;;;;;;;;;5049064;28;20033;-72
2023/01/23 09:05:46;;;;;;;3.17;2.10;;;;;;;;;;5049214;28;20017;-72
2023/01/23 09:08:12;;;;;;;6.55;2.80;;;;;;;;;;5061994;28;20542;-71
2023/01/23 09:10:38;;;;;;;3.53;2.42;;;;;;;;;;5068627;28;20055;-72
2023/01/23 09:13:04;;;;;;;5.10;2.50;;;;;;;;;;5064549;28;20131;-71
2023/01/23 09:15:30;;;;;;;3.22;2.10;;;;;;;;;;5056425;28;20032;-71
2023/01/23 09:17:56;;;;;;;2.67;2.08;;;;;;;;;;5048858;28;20036;-72
2023/01/23 09:20:25;;;;;;;3.80;2.53;;;;;;;;;;5048381;28;20079;-71
2023/01/23 09:22:51;;;;;;;5.60;2.80;;;;;;;;;;5049020;28;20032;-72
2023/01/23 09:25:17;;;;;;;6.43;2.78;;;;;;;;;;5063977;28;20032;-72
2023/01/23 09:27:43;;;;;;;5.70;2.60;;;;;;;;;;5068638;28;20024;-71
2023/01/23 09:30:10;;;;;;;2.97;2.17;;;;;;;;;;5068691;28;20028;-72
2023/01/23 09:32:36;;;;;;;4.00;2.50;;;;;;;;;;5068669;28;20020;-71
2023/01/23 09:35:02;;;;;;;4.97;2.53;;;;;;;;;;5058426;28;20494;-72
2023/01/23 09:40:18;;;;;;;5.47;2.33;;;;;;;;;;5048377;28;20272;-71
2023/01/23 09:42:44;;;;;;;3.75;2.30;;;;;;;;;;5048189;28;20059;-71
2023/01/23 09:45:11;;;;;;;4.07;2.60;;;;;;;;;;5048122;28;20033;-72
2023/01/23 09:47:44;;;;;;;5.78;2.60;;;;;;;;;;5060687;28;20088;-71
2023/01/23 09:50:17;;;;;;;3.92;2.25;;;;;;;;;;5057806;28;20104;-72
2023/01/23 09:52:53;;;;;;;5.13;2.30;;;;;;;;;;5068106;28;20024;-71
2023/01/23 09:55:28;;;;;;;4.43;2.35;;;;;;;;;;5067704;28;20020;-72
2023/01/23 09:57:56;;;;;;;3.58;2.22;;;;;;;;;;5064360;28;20048;-72
2023/01/23 10:00:24;;;;;;;6.32;2.40;;;;;;;;;;5047761;28;20029;-72
2023/01/23 10:02:52;;;;;;;5.57;2.53;;;;;;;;;;5047502;28;20505;-71
2023/01/23 10:05:18;;;;;;;3.92;2.35;;;;;;;;;;5047276;28;20040;-71
2023/01/23 10:08:02;;;;;;;3.50;2.08;;;;;;;;;;5055362;28;20387;-72
2023/01/23 10:10:47;;;;;;;5.53;2.53;;;;;;;;;;5067879;28;20092;-71
2023/01/23 10:13:13;;;;;;;4.20;2.13;;;;;;;;;;5067646;28;20051;-71
2023/01/23 10:15:50;;;;;;;4.72;2.45;;;;;;;;;;5057572;28;20017;-71
2023/01/23 10:18:24;;;;;;;5.03;2.30;;;;;;;;;;5047523;28;20063;-71
2023/01/23 10:21:03;;;;;;;4.28;2.22;;;;;;;;;;5047943;28;20135;-72
2023/01/23 10:23:41;;;;;;;4.72;2.42;;;;;;;;;;5047665;28;20023;-72
2023/01/23 10:26:19;;;;;;;5.20;2.40;;;;;;;;;;5049628;28;20029;-72
2023/01/23 10:28:46;;;;;;;3.53;2.15;;;;;;;;;;5047779;28;20036;-72
2023/01/23 10:31:15;;;;;;;2.97;2.17;;;;;;;;;;5047607;28;20025;-72
2023/01/23 10:33:49;;;;;;;4.05;2.58;;;;;;;;;;5047187;28;20078;-71
2023/01/23 10:36:15;;;;;;;5.13;2.67;;;;;;;;;;5047434;28;20104;-72
2023/01/23 10:39:07;;;;;;;3.95;2.30;;;;;;;;;;5047040;28;20432;-72
2023/01/23 10:41:33;;;;;;;3.53;2.00;;;;;;;;;;5044647;28;20119;-72
2023/01/23 10:44:00;;;;;;;4.25;2.67;;;;;;;;;;5056586;28;20027;-72
2023/01/23 10:46:42;;;;;;;3.92;2.40;;;;;;;;;;5067163;28;20105;-71
2023/01/23 10:49:08;;;;;;;3.88;2.42;;;;;;;;;;5063623;28;20025;-72
2023/01/23 10:51:44;;;;;;;3.70;2.30;;;;;;;;;;5067426;28;20534;-72
2023/01/23 10:54:10;;;;;;;4.07;2.55;;;;;;;;;;5067449;28;20051;-72
2023/01/23 10:56:38;;;;;;;3.28;2.08;;;;;;;;;;5067104;28;20370;-72
2023/01/23 10:59:05;;;;;;;3.47;2.10;;;;;;;;;;5055468;28;20041;-72
2023/01/23 11:01:32;;;;;;;3.05;2.40;;;;;;;;;;5047335;28;20039;-72
2023/01/23 11:04:17;;;;;;;3.03;2.40;;;;;;;;;;5046902;28;20047;-72
2023/01/23 11:06:43;;;;;;;3.67;2.70;;;;;;;;;;5047346;28;20032;-72
2023/01/23 11:09:18;;;;;;;3.38;2.20;;;;;;;;;;5058184;28;20369;-72
2023/01/23 11:11:44;;;;;;;6.25;2.70;;;;;;;;;;5046600;28;21082;-71
2023/01/23 11:14:12;;;;;;;5.85;2.60;;;;;;;;;;5051136;28;20017;-72
2023/01/23 11:16:38;;;;;;;4.45;2.20;;;;;;;;;;5054747;28;20110;-72
2023/01/23 11:19:07;;;;;;;4.18;2.38;;;;;;;;;;5051281;28;20052;-72
2023/01/23 11:21:38;;;;;;;3.65;2.60;;;;;;;;;;5051068;28;20535;-72
2023/01/23 11:24:18;;;;;;;3.70;2.30;;;;;;;;;;5051029;28;20032;-72
2023/01/23 11:26:44;;;;;;;4.00;2.67;;;;;;;;;;5050643;28;20037;-72
2023/01/23 11:29:19;;;;;;;3.60;2.22;;;;;;;;;;5051091;28;20036;-71
2023/01/23 11:31:46;;;;;;;3.40;2.15;;;;;;;;;;5050968;28;20021;-72
2023/01/23 11:34:13;;;;;;;4.82;2.65;;;;;;;;;;5050939;28;20477;-71
2023/01/23 11:36:51;;;;;;;3.45;2.28;;;;;;;;;;5054837;28;20198;-71
2023/01/23 11:39:37;;;;;;;4.70;2.03;;;;;;;;;;5051329;28;20032;-72
2023/01/23 11:42:03;;;;;;;4.07;2.67;;;;;;;;;;5047639;28;20044;-72
2023/01/23 11:44:29;;;;;;;3.75;2.40;;;;;;;;;;5045901;28;20044;-71
2023/01/23 11:47:07;;;;;;;4.03;2.25;;;;;;;;;;5045991;28;20496;-71
2023/01/23 11:49:33;;;;;;;4.82;2.17;;;;;;;;;;5046196;28;20025;-71
2023/01/23 11:52:11;;;;;;;3.55;2.30;;;;;;;;;;5045097;28;20539;-72
2023/01/23 11:54:51;;;;;;;3.50;2.10;;;;;;;;;;5044338;28;20021;-72
2023/01/23 11:57:33;;;;;;;2.58;1.85;;;;;;;;;;5040494;28;20033;-72
2023/01/23 11:59:59;;;;;;;3.70;2.38;;;;;;;;;;5041711;28;20053;-71
2023/01/23 12:02:44;;;;;;;4.78;2.13;;;;;;;;;;5043582;28;20033;-71
2023/01/23 12:05:15;;;;;;;3.53;2.05;;;;;;;;;;5055402;28;20028;-71
2023/01/23 12:07:50;;;;;;;2.92;2.08;;;;;;;;;;5062084;28;20074;-72
2023/01/23 12:10:23;;;;;;;4.25;2.30;;;;;;;;;;5066948;28;20039;-72
2023/01/23 12:13:15;;;;;;;4.13;2.42;;;;;;;;;;5058554;28;20044;-71
2023/01/23 12:16:02;;;;;;;4.95;2.70;;;;;;;;;;5045761;28;20025;-71
2023/01/23 12:18:43;;;;;;;5.22;2.30;;;;;;;;;;5057368;28;20936;-72
2023/01/23 12:21:21;;;;;;;3.20;2.15;;;;;;;;;;5067079;28;20487;-71
2023/01/23 12:23:54;;;;;;;3.42;2.45;;;;;;;;;;5066948;28;20032;-72
2023/01/23 12:26:21;;;;;;;3.50;2.33;;;;;;;;;;5048172;28;20044;-71
2023/01/23 12:28:53;;;;;;;4.40;2.15;;;;;;;;;;5057227;28;20036;-71
2023/01/23 12:31:25;;;;;;;4.32;2.22;;;;;;;;;;5066370;28;20103;-72
2023/01/23 12:34:03;;;;;;;3.10;2.05;;;;;;;;;;5044724;28;20047;-71
2023/01/23 12:36:29;;;;;;;3.08;1.92;;;;;;;;;;5049606;28;20028;-71
2023/01/23 12:39:04;;;;;;;5.05;2.17;;;;;;;;;;5060244;28;20028;-71
2023/01/23 12:41:35;;;;;;;4.32;2.65;;;;;;;;;;5064630;28;20122;-72
2023/01/23 12:44:04;;;;;;;3.78;2.45;;;;;;;;;;5055413;28;20032;-71
2023/01/23 12:46:40;;;;;;;4.40;2.22;;;;;;;;;;5050036;28;20037;-71
2023/01/23 12:49:17;;;;;;;2.95;2.17;;;;;;;;;;5042666;28;20045;-72
2023/01/23 12:51:45;;;;;;;3.15;2.08;;;;;;;;;;5043722;28;20036;-72
2023/01/23 12:54:15;;;;;;;2.85;2.42;;;;;;;;;;5044099;28;20047;-72
2023/01/23 12:56:42;;;;;;;2.38;1.73;;;;;;;;;;5062357;28;20562;-71
2023/01/23 12:59:15;;;;;;;3.60;2.28;;;;;;;;;;5068390;28;20032;-72
2023/01/23 13:01:47;;;;;;;2.70;2.17;;;;;;;;;;5062049;28;20050;-72
2023/01/23 13:04:22;;;;;;;3.83;1.98;;;;;;;;;;5040065;28;20116;-72
2023/01/23 13:07:07;;;;;;;4.00;1.98;;;;;;;;;;5043414;28;20060;-71
2023/01/23 13:09:45;;;;;;;3.83;2.40;;;;;;;;;;5061789;28;20071;-71
2023/01/23 13:12:20;;;;;;;4.65;2.30;;;;;;;;;;5044791;28;20037;-71
2023/01/23 13:14:46;;;;;;;1.65;1.50;;;;;;;;;;5053103;28;20077;-72
2023/01/23 13:17:31;;;;;;;4.28;2.22;;;;;;;;;;5049306;28;20024;-72
2023/01/23 13:23:20;;;;;;;3.28;2.20;;;;;;;;;;5057947;28;20388;-71
2023/01/23 13:25:47;;;;;;;2.78;1.98;;;;;;;;;;5044724;28;20017;-72
2023/01/23 13:28:25;;;;;;;4.03;2.28;;;;;;;;;;5062402;28;20079;-71
2023/01/23 13:30:59;;;;;;;5.32;1.98;;;;;;;;;;5050237;28;20035;-71
2023/01/23 13:33:33;;;;;;;3.25;2.15;;;;;;;;;;5047074;28;20026;-72
2023/01/23 13:36:13;;;;;;;3.55;2.22;;;;;;;;;;5047817;28;20025;-71
2023/01/23 13:38:41;;;;;;;2.38;1.73;;;;;;;;;;5044989;28;20068;-72
2023/01/23 13:41:13;;;;;;;2.67;1.75;;;;;;;;;;5042365;28;20036;-72
2023/01/23 13:43:43;;;;;;;4.18;2.35;;;;;;;;;;5053707;28;20032;-71
2023/01/23 13:46:35;;;;;;;3.42;2.10;;;;;;;;;;5055474;28;20098;-72
2023/01/23 13:51:47;;;;;;;3.58;2.17;;;;;;;;;;5045476;28;20043;-72
2023/01/23 13:57:01;;;;;;;3.42;1.90;;;;;;;;;;5062656;28;20090;-71
2023/01/23 13:59:29;;;;;;;3.17;1.75;;;;;;;;;;5062864;28;20124;-72
2023/01/23 14:05:12;;;;;;;5.18;2.35;;;;;;;;;;5051720;28;20086;-72
2023/01/23 14:07:49;;;;;;;1.80;1.55;;;;;;;;;;5056340;28;20057;-72
2023/01/23 14:10:32;;;;;;;2.15;1.77;;;;;;;;;;5057594;28;20033;-71
2023/01/23 14:13:11;;;;;;;2.88;1.98;;;;;;;;;;5045438;28;20049;-72
2023/01/23 14:18:33;;;;;;;3.83;1.95;;;;;;;;;;5049828;28;20081;-72
2023/01/23 14:21:00;;;;;;;3.75;2.47;;;;;;;;;;5064439;28;20087;-72
2023/01/23 14:23:28;;;;;;;4.15;2.08;;;;;;;;;;5059020;28;20025;-72
2023/01/23 14:25:54;;;;;;;3.75;1.92;;;;;;;;;;5056062;28;20116;-72
2023/01/23 14:28:20;;;;;;;4.43;1.95;;;;;;;;;;5058474;28;20024;-72
2023/01/23 14:30:57;;;;;;;2.92;1.67;;;;;;;;;;5050747;28;20025;-72
2023/01/23 14:33:23;;;;;;;4.75;1.98;;;;;;;;;;5050282;28;20409;-72
2023/01/23 14:35:49;;;;;;;3.13;2.17;;;;;;;;;;5044744;28;20032;-73
2023/01/23 14:38:20;;;;;;;3.17;2.10;;;;;;;;;;5058708;28;20020;-72
2023/01/23 14:40:46;;;;;;;2.30;1.70;;;;;;;;;;5048495;28;20033;-72
2023/01/23 14:43:16;;;;;;;3.47;2.00;;;;;;;;;;5047413;28;20484;-72
2023/01/23 14:45:45;;;;;;;3.07;2.10;;;;;;;;;;5061443;28;20055;-72
2023/01/23 14:48:14;;;;;;;2.60;1.77;;;;;;;;;;5055468;28;20583;-72
2023/01/23 14:50:40;;;;;;;3.53;2.15;;;;;;;;;;5059089;28;20450;-71
2023/01/23 14:53:11;;;;;;;3.22;2.30;;;;;;;;;;5054072;28;20035;-72
2023/01/23 14:55:39;;;;;;;4.22;2.03;;;;;;;;;;5052947;28;20040;-72
2023/01/23 14:58:06;;;;;;;2.47;1.70;;;;;;;;;;5054236;28;20387;-72
2023/01/23 15:00:33;;;;;;;2.58;1.60;;;;;;;;;;5050164;28;20027;-72
2023/01/23 15:02:59;;;;;;;4.05;2.33;;;;;;;;;;5047188;28;20211;-72
2023/01/23 15:05:28;;;;;;;2.28;1.85;;;;;;;;;;5042627;28;20028;-72
2023/01/23 15:07:54;;;;;;;2.45;1.77;;;;;;;;;;5053503;28;20122;-73
2023/01/23 15:10:25;;;;;;;3.15;1.92;;;;;;;;;;5062523;28;20017;-72
2023/01/23 15:12:57;;;;;;;2.58;2.05;;;;;;;;;;5059165;28;20144;-72
2023/01/23 15:15:24;;;;;;;2.72;1.73;;;;;;;;;;5044348;28;20041;-71
2023/01/23 15:17:51;;;;;;;2.92;2.15;;;;;;;;;;5042063;28;20044;-73